Regional Weather

 

KMKL - Jackson, TN, USA
Distance from station: WNW 50mi, 81km
Updated: Wed, Dec-11-2019 7:53am CST
Clear
Clear
 Wind from calm
Wind: Calm
Temperature: 27°F , -3°C
Dew Point: 25°F , -4°C
Humidity: 93%
Barometer: 30.53 inHg , 1033.9 hPa
Clouds: Clear
Visibility: 10 miles , 16 km
2019/12/11 13:53 KMKL 111353Z 00000KT 10SM CLR M03/M04 A3053 RMK AO2 SLP344 T10331044 $
KMEM - Memphis, TN, USA
Distance from station: W 108mi, 173km
Updated: Wed, Dec-11-2019 7:54am CST
Clear
Clear
 Wind from S
Wind: S 5 mph , 7 km/h
Temperature: 30°F , -1°C
Wind Chill: 25°F , -4°C
Dew Point: 25°F , -4°C
Humidity: 80%
Barometer: 30.54 inHg , 1034.2 hPa
Clouds: Clear
Visibility: 10 miles , 16 km
2019/12/11 13:54 KMEM 111354Z 19004KT 10SM CLR M01/M04 A3054 RMK AO2 SLP344 T10111039
 
KBNA - Nashville, TN, USA
Distance from station: NE 97mi, 157km
Updated: Wed, Dec-11-2019 7:53am CST
Few Clouds
Few Clouds
 Wind from SSE
Wind: SSE 3 mph , 6 km/h
Temperature: 28°F , -2°C
Dew Point: 23°F , -5°C
Humidity: 80%
Barometer: 30.53 inHg , 1033.9 hPa
Clouds: Few Clouds
Visibility: 10 miles , 16 km
Cloud details: Few Clouds 1400 ft
2019/12/11 13:53 KBNA 111353Z 16003KT 10SM FEW014 M02/M05 A3053 RMK AO2 SLP345 T10221050
KCKV - Clarksville, TN, USA
Distance from station: NNE 99mi, 159km
Updated: Wed, Dec-11-2019 7:52am CST
Clear
Clear
 Wind from S
Wind: S 3 mph , 6 km/h
Temperature: 25°F , -4°C
Dew Point: 25°F , -4°C
Humidity: 100%
Barometer: 30.51 inHg , 1033.2 hPa
Clouds: Clear
Visibility: 10 miles , 16 km
2019/12/11 13:52 KCKV 111352Z AUTO 19003KT 10SM CLR M04/M04 A3051 RMK AO2 SLP337 T10391044
 
KPAH - Paducah, KY, USA
Distance from station: NNW 128mi, 205km
Updated: Wed, Dec-11-2019 7:53am CST
Clear
Clear
 Wind from SSW
Wind: SSW 5 mph , 7 km/h
Temperature: 27°F , -3°C
Wind Chill: 21°F , -6°C
Dew Point: 21°F , -6°C
Humidity: 80%
Barometer: 30.49 inHg , 1032.5 hPa
Clouds: Clear
Visibility: 10 miles , 16 km
2019/12/11 13:53 KPAH 111353Z 20004KT 10SM CLR M03/M06 A3049 RMK AO2 SLP329 T10281061
KCHA - Chattanooga, TN, USA
Distance from station: E 165mi, 265km
Updated: Wed, Dec-11-2019 7:53am CST
Partly cloudy
Partly cloudy
 Wind from N
Wind: N 10 mph , 17 km/h
Temperature: 34°F , 1°C
Wind Chill: 26°F , -3°C
Dew Point: 25°F , -4°C
Humidity: 70%
Barometer: 30.51 inHg , 1033.2 hPa
Clouds: Partly cloudy
Visibility: 10 miles , 16 km
Cloud details: Few Clouds 20000 ft
Partly cloudy 25000 ft
2019/12/11 13:53 KCHA 111353Z 36009KT 10SM FEW200 SCT250 01/M04 A3051 RMK AO2 SLP335 T00061039
 
KTYS - Knoxville, TN, USA
Distance from station: E 234mi, 377km
Updated: Wed, Dec-11-2019 7:53am CST
Few Clouds
Few Clouds
 Wind from ENE
Wind: ENE 3 mph , 6 km/h
Temperature: 30°F , -1°C
Dew Point: 27°F , -3°C
Humidity: 86%
Barometer: 30.49 inHg , 1032.5 hPa
Clouds: Few Clouds
Visibility: 10 miles , 16 km
Cloud details: Few Clouds 2500 ft
Few Clouds 25000 ft
2019/12/11 13:53 KTYS 111353Z 06003KT 10SM FEW025 FEW250 M01/M03 A3049 RMK AO2 SLP331 T10061033
KLIT - Little Rock, AR, USA
Distance from station: W 240mi, 386km
Updated: Wed, Dec-11-2019 7:53am CST
Clear
Clear
 Wind from SSW
Wind: SSW 3 mph , 6 km/h
Temperature: 27°F , -3°C
Dew Point: 25°F , -4°C
Humidity: 93%
Barometer: 30.56 inHg , 1034.9 hPa
Clouds: Clear
Visibility: 10 miles , 16 km
2019/12/11 13:53 KLIT 111353Z 21003KT 10SM CLR M03/M04 A3056 RMK AO2 SLP354 T10331044

Refresh Page for latest data.